Genevia, Arkansas
Current Conditions -  °F | °C
As of 10:08 PM on Monday 22 Dec 2014 (Local Time) from KLIT Reporting Station
Broken Clouds Broken Clouds  
Wind Chill: 55°   Ceiling: 3200
Heat Index: 55°   Visibility: 10mi
Dew Point: 50°   Wind: 5mph
Humidity: 82%   Direction: 290°WNW
Pressure: 29.67"   Gusts: NA
Location:  34.7066°N, 92.2297°W
Report Text: KLIT 230408Z 29004KT 10SM SCT024 BKN032 13/10 A2967 RMK AO2
Loading
Personal Weather Stations






























Interactive Weather Map New forecast layout! Learn more

10-Day Weather Forecast

Advertisements
Track Severe Weather on mobile